Airfield :
LOGIN :

Register | Disclaimer

   EN    FR    IT 

 










Legend :    VFR   Marginal VFR   IFR   Intensive IFR   Very Intensive IFR
Visi :
Ceiling :
>= 8 km
>= 3000ft
5 to 8 km
1000 to 3000 ft
1500m to 5 km
500 to 1000 ft
800 to 1500m
200 to 500 ft
< 800m
< 200 ft
Symbols :   Thunderstorms  Fog  Heavy snow  Heavy precipitations  Wind > 20 kt
SIGMETs :     Misc.  Thunderstorms  Icing  Turbulence  Mountain Waves  Volcanic Ashes






- Airport Elevation : 782 ft
- IATA code : BGY


LIME - Orio al Serio International - Bergamo

CURRENT METAR :
  • 152350Z VRB02KT 9999 BKN050 06/06 Q1019 NOSIG

EXPIRED METARs :
  • 152320Z VRB02KT 9999 BKN050 06/05 Q1019 NOSIG
  • 152250Z VRB02KT 9999 BKN060 06/05 Q1019 NOSIG
  • 152220Z VRB02KT 9999 BKN060 06/05 Q1019 NOSIG
  • 152150Z 34003KT 280V360 9999 BKN060 06/05 Q1019 NOSIG
  • 152120Z VRB02KT 9999 SCT015 BKN060 06/05 Q1018 NOSIG

TAF TAF LIME
Valid from the 16 at 00:00 until the 17 at 00:00 UTC


152300Z 1600/1624 VRB05KT 5000 BR BKN020 BKN050
TEMPO 1600/1621 2500 DZ BKN012 BKN040



MET'MAP, your aeronautical weather chart ! - Copyright ORBIFLY December 2007 - Disclaimer

ORBIFLY MET'MAP TEAM :

Programming & Development : Alexandra Zaïnal
Concept & original design : Baudouin d'Aumeries
Assistance for programming : Marc-Olivier Méhu
Technical & hardware support : Manuel Goepfert

Contact : metmap@orbifly.com




SOURCES & CREDITS :

   NOAA